Time;durP1;ratioP1;P1;durP2;ratioP2;P2;SDS_P1;SDS_P2;PMS_P1;PMS_P2;Temp;Humidity;BMP_temperature;BMP_pressure;BME280_temperature;BME280_humidity;BME280_pressure;Samples;Min_cycle;Max_cycle;Signal;HPM_P1;HPM_P2
2022/01/19 00:01:24;;;;;;;57.15;23.55;;;;;;;0.30;100.00;95870.16;4998803;28;20104;-85
2022/01/19 00:03:49;;;;;;;52.88;21.35;;;;;;;0.17;100.00;95875.81;4999868;28;20030;-85
2022/01/19 00:06:15;;;;;;;60.80;22.98;;;;;;;0.21;100.00;95882.22;4998544;28;20113;-85
2022/01/19 00:08:40;;;;;;;54.20;20.80;;;;;;;0.24;100.00;95902.53;4998686;28;20034;-85
2022/01/19 00:11:06;;;;;;;60.25;20.90;;;;;;;0.23;100.00;95897.53;4998676;28;20030;-85
2022/01/19 00:13:31;;;;;;;55.67;21.00;;;;;;;0.39;100.00;95902.66;4999719;28;20121;-85
2022/01/19 00:15:57;;;;;;;60.70;22.88;;;;;;;0.48;100.00;95903.44;4982231;28;20116;-84
2022/01/19 00:18:24;;;;;;;57.65;22.75;;;;;;;0.33;100.00;95899.94;4999740;28;20463;-84
2022/01/19 00:20:50;;;;;;;66.20;23.70;;;;;;;0.31;100.00;95901.88;4998434;28;20026;-85
2022/01/19 00:23:18;;;;;;;67.80;25.73;;;;;;;0.51;100.00;95899.75;4998161;28;20343;-85
2022/01/19 00:25:44;;;;;;;66.13;24.67;;;;;;;0.49;100.00;95888.78;4998343;28;20160;-85
2022/01/19 00:28:10;;;;;;;58.47;21.27;;;;;;;0.42;100.00;95891.22;4982051;28;20128;-85
2022/01/19 00:30:35;;;;;;;48.00;18.88;;;;;;;0.36;100.00;95892.69;4998211;28;20034;-85
2022/01/19 00:33:01;;;;;;;56.60;20.20;;;;;;;0.40;100.00;95885.44;4999467;28;20026;-84
2022/01/19 00:35:26;;;;;;;53.70;20.67;;;;;;;0.41;100.00;95889.63;4999363;28;20038;-85
2022/01/19 00:37:52;;;;;;;50.72;20.15;;;;;;;0.23;100.00;95882.91;4998238;28;20038;-85
2022/01/19 00:40:17;;;;;;;57.58;21.25;;;;;;;0.10;100.00;95883.38;4997771;28;20038;-85
2022/01/19 00:42:44;;;;;;;51.92;19.95;;;;;;;-0.04;100.00;95886.63;4998089;28;20113;-85
2022/01/19 00:45:11;;;;;;;49.50;19.23;;;;;;;-0.14;100.00;95894.53;4999030;28;20065;-85
2022/01/19 00:47:36;;;;;;;42.50;16.92;;;;;;;0.03;100.00;95889.34;4997729;28;20471;-85
2022/01/19 00:50:04;;;;;;;37.60;14.45;;;;;;;0.03;100.00;95889.34;4997964;28;20109;-85
2022/01/19 00:52:29;;;;;;;40.95;15.77;;;;;;;0.07;100.00;95894.03;4999048;28;20399;-85
2022/01/19 00:54:55;;;;;;;44.60;18.77;;;;;;;0.09;100.00;95889.50;4997396;28;20084;-85
2022/01/19 00:57:20;;;;;;;45.90;17.67;;;;;;;0.00;100.00;95882.78;4998745;28;20356;-85
2022/01/19 00:59:46;;;;;;;41.08;14.88;;;;;;;0.06;100.00;95861.50;4981249;28;20351;-85
2022/01/19 01:02:11;;;;;;;38.88;15.05;;;;;;;0.07;100.00;95860.53;4997792;28;20408;-85
2022/01/19 01:04:36;;;;;;;43.10;15.82;;;;;;;0.19;100.00;95849.88;4981000;28;20030;-84
2022/01/19 01:07:02;;;;;;;38.38;16.33;;;;;;;0.37;100.00;95845.31;4998790;28;20427;-85
2022/01/19 01:09:28;;;;;;;41.38;16.00;;;;;;;0.30;100.00;95862.41;4998630;28;20453;-85
2022/01/19 01:12:14;;;;;;;44.55;16.05;;;;;;;0.17;100.00;95865.50;4997029;28;20089;-85
2022/01/19 01:20:11;;;;;;;39.63;15.38;;;;;;;0.15;100.00;95887.25;4998329;28;20061;-85
2022/01/19 01:22:38;;;;;;;43.08;16.92;;;;;;;0.13;100.00;95895.16;4997316;28;20076;-85
2022/01/19 01:25:04;;;;;;;42.45;16.75;;;;;;;0.16;100.00;95897.41;4996871;28;20030;-85
2022/01/19 01:27:30;;;;;;;40.28;16.13;;;;;;;0.22;100.00;95890.78;4996973;28;20061;-85
2022/01/19 01:29:56;;;;;;;42.20;16.38;;;;;;;0.20;100.00;95890.94;4997160;28;20452;-85
2022/01/19 01:32:21;;;;;;;47.97;17.77;;;;;;;0.35;100.00;95887.69;4997130;28;20054;-85
2022/01/19 01:34:46;;;;;;;48.63;19.65;;;;;;;0.37;100.00;95881.41;4980793;28;20100;-85
2022/01/19 01:37:12;;;;;;;45.15;16.55;;;;;;;0.26;100.00;95882.56;4997106;28;20053;-85
2022/01/19 01:39:38;;;;;;;45.58;16.90;;;;;;;0.17;100.00;95880.97;4998111;28;20145;-85
2022/01/19 01:42:16;;;;;;;48.60;19.33;;;;;;;0.10;100.00;95882.59;4997019;28;20474;-85
2022/01/19 01:44:45;;;;;;;51.17;20.58;;;;;;;0.04;100.00;95873.75;4997658;28;20407;-85
2022/01/19 01:47:12;;;;;;;50.63;19.38;;;;;;;0.02;100.00;95877.44;5012920;28;20030;-85
2022/01/19 01:54:51;;;;;;;47.58;19.17;;;;;;;0.05;100.00;95865.03;5010559;28;20088;-85
2022/01/19 01:57:16;;;;;;;64.82;25.23;;;;;;;-0.18;100.00;95870.84;4996707;28;20027;-85
2022/01/19 01:59:41;;;;;;;65.25;23.65;;;;;;;-0.25;100.00;95856.22;4996638;28;20018;-85
2022/01/19 02:02:08;;;;;;;66.22;22.92;;;;;;;-0.36;100.00;95859.91;4996363;28;20049;-86
2022/01/19 02:04:40;;;;;;;58.70;22.65;;;;;;;-0.51;100.00;95845.13;4980219;28;20048;-86
2022/01/19 02:09:54;;;;;;;56.83;21.98;;;;;;;-0.46;100.00;95839.50;4976981;28;20396;-85
2022/01/19 02:23:44;;;;;;;51.30;19.45;;;;;;;-0.45;100.00;95830.78;4989932;28;20042;-85
2022/01/19 02:26:16;;;;;;;56.45;20.50;;;;;;;-0.43;100.00;95827.09;4980844;28;20022;-86
2022/01/19 02:29:00;;;;;;;47.58;19.20;;;;;;;-0.54;100.00;95822.28;4996356;28;20026;-85
2022/01/19 02:42:07;;;;;;;52.42;21.30;;;;;;;-0.38;100.00;95808.56;4996179;28;20038;-85
2022/01/19 02:49:47;;;;;;;56.42;21.15;;;;;;;-0.40;100.00;95800.19;4996984;28;20088;-85
2022/01/19 02:52:13;;;;;;;58.85;21.38;;;;;;;-0.37;100.00;95789.56;4996095;28;20073;-86
2022/01/19 02:54:39;;;;;;;52.40;19.25;;;;;;;-0.40;100.00;95792.47;4997208;28;20387;-85
2022/01/19 02:57:07;;;;;;;46.85;18.55;;;;;;;-0.49;100.00;95789.09;4996106;28;20070;-85
2022/01/19 03:10:29;;;;;;;45.90;17.83;;;;;;;-0.59;100.00;95793.59;4995832;28;20096;-85
2022/01/19 03:12:54;;;;;;;45.08;18.20;;;;;;;-0.59;100.00;95793.59;4995671;28;20436;-85
2022/01/19 03:15:20;;;;;;;47.40;18.25;;;;;;;-0.49;100.00;95796.81;4997037;28;20038;-85
2022/01/19 03:17:45;;;;;;;45.42;17.50;;;;;;;-0.57;100.00;95791.69;4997081;28;20034;-85
2022/01/19 03:20:11;;;;;;;46.47;18.27;;;;;;;-0.52;100.00;95789.44;4997082;28;20032;-85
2022/01/19 03:22:45;;;;;;;46.17;17.90;;;;;;;-0.35;100.00;95790.22;4995331;28;20038;-85
2022/01/19 03:25:13;;;;;;;45.42;18.15;;;;;;;-0.40;100.00;95791.69;4995842;28;20034;-85
2022/01/19 03:27:47;;;;;;;49.00;19.00;;;;;;;-0.50;100.00;95790.06;4979709;28;20022;-85
2022/01/19 03:30:14;;;;;;;41.45;17.27;;;;;;;-0.48;100.00;95787.34;4995879;28;20034;-85
2022/01/19 03:32:40;;;;;;;40.10;16.58;;;;;;;-0.66;100.00;95784.94;4996908;28;20034;-85
2022/01/19 03:35:05;;;;;;;44.28;17.88;;;;;;;-0.65;100.00;95782.19;5015611;28;20053;-85
2022/01/19 03:37:31;;;;;;;48.72;17.23;;;;;;;-0.70;100.00;95793.97;5000016;28;20038;-85
2022/01/19 03:39:56;;;;;;;41.70;16.73;;;;;;;-0.56;100.00;95795.88;4999213;28;20034;-85
2022/01/19 03:42:22;;;;;;;47.30;17.23;;;;;;;-0.50;100.00;95791.84;4998994;28;20042;-85
2022/01/19 03:44:47;;;;;;;46.20;17.08;;;;;;;-0.48;100.00;95787.34;4998737;28;20042;-85
2022/01/19 03:47:13;;;;;;;48.60;17.05;;;;;;;-0.43;100.00;95778.19;5000302;28;20034;-85
2022/01/19 03:49:38;;;;;;;40.47;16.55;;;;;;;-0.63;100.00;95782.03;4998719;28;20092;-85
2022/01/19 03:52:05;;;;;;;39.15;16.13;;;;;;;-0.67;100.00;95776.41;5000168;28;20086;-85
2022/01/19 03:54:33;;;;;;;41.95;16.02;;;;;;;-0.66;100.00;95766.91;5015262;28;20061;-85
2022/01/19 03:56:59;;;;;;;47.50;17.02;;;;;;;-0.58;100.00;95769.47;4999886;28;20037;-85
2022/01/19 03:59:25;;;;;;;44.72;16.90;;;;;;;-0.59;100.00;95770.44;4998603;28;20128;-85
2022/01/19 04:01:52;;;;;;;43.53;15.88;;;;;;;-0.59;100.00;95768.69;4996879;28;20169;-85
2022/01/19 04:09:28;;;;;;;44.78;15.93;;;;;;;-0.83;100.00;95768.69;4980125;28;20039;-85
2022/01/19 04:11:55;;;;;;;46.72;17.95;;;;;;;-0.85;100.00;95756.00;4980405;28;20121;-85
2022/01/19 04:14:25;;;;;;;46.15;17.40;;;;;;;-0.58;100.00;95762.56;4978843;28;20039;-85
2022/01/19 04:17:03;;;;;;;40.50;16.65;;;;;;;-0.73;100.00;95762.41;4979193;28;20046;-85
2022/01/19 04:19:43;;;;;;;44.45;15.77;;;;;;;-0.92;100.00;95763.56;4998339;28;20145;-86
2022/01/19 04:22:11;;;;;;;41.15;16.20;;;;;;;-1.02;100.00;95761.09;4998670;28;20065;-86
2022/01/19 04:24:37;;;;;;;43.38;16.67;;;;;;;-1.12;100.00;95760.47;4998413;28;20050;-85
2022/01/19 04:29:43;;;;;;;45.53;16.88;;;;;;;-1.01;100.00;95755.00;4978736;28;20444;-85
2022/01/19 04:32:16;;;;;;;47.40;17.88;;;;;;;-0.94;100.00;95746.66;4979912;28;20050;-85
2022/01/19 04:34:44;;;;;;;;;;;;;;;-0.95;100.00;95750.19;4980287;28;20035;-85
2022/01/19 05:01:57;;;;;;;49.58;20.77;;;;;;;-0.68;100.00;95737.97;4977903;28;20092;-85
2022/01/19 05:04:45;;;;;;;54.45;19.77;;;;;;;-0.90;100.00;95741.03;4978410;28;20050;-85
2022/01/19 05:07:18;;;;;;;49.80;19.05;;;;;;;-0.88;100.00;95735.72;4978516;28;20344;-85
2022/01/19 05:10:02;;;;;;;49.42;19.33;;;;;;;-0.94;100.00;95731.22;4978214;28;20035;-85
2022/01/19 05:15:19;;;;;;;50.60;19.52;;;;;;;-1.04;100.00;95721.88;4978898;28;20042;-85
2022/01/19 05:17:45;;;;;;;54.35;20.00;;;;;;;-0.95;100.00;95722.69;4978022;28;20102;-85
2022/01/19 05:20:12;;;;;;;52.25;21.15;;;;;;;-0.95;100.00;95721.91;4961547;28;20023;-85
2022/01/19 05:22:38;;;;;;;63.17;23.00;;;;;;;-0.86;100.00;95715.78;4977938;28;20125;-85
2022/01/19 05:25:04;;;;;;;52.95;20.67;;;;;;;-0.62;100.00;95719.28;4977815;28;20428;-85
2022/01/19 05:27:30;;;;;;;33.75;13.10;;;;;;;-0.72;100.00;95720.28;4961675;28;20062;-85
2022/01/19 05:29:56;;;;;;;45.97;16.13;;;;;;;-0.58;100.00;95718.81;4977352;28;20031;-85
2022/01/19 05:32:22;;;;;;;40.90;13.57;;;;;;;-0.63;100.00;95715.09;4978899;28;20042;-85
2022/01/19 05:34:48;;;;;;;34.75;12.98;;;;;;;-0.56;100.00;95713.50;4978755;28;20035;-85
2022/01/19 05:37:13;;;;;;;36.95;14.07;;;;;;;-0.63;100.00;95708.19;4978861;28;20429;-85
2022/01/19 05:39:39;;;;;;;38.72;14.57;;;;;;;-0.62;100.00;95712.38;4979428;28;20464;-86
2022/01/19 05:42:04;;;;;;;31.17;11.93;;;;;;;-0.50;100.00;95709.44;5013252;28;20034;-85
2022/01/19 05:44:30;;;;;;;32.67;12.50;;;;;;;-0.69;100.00;95713.97;4997501;28;20042;-85
2022/01/19 05:46:55;;;;;;;32.38;12.07;;;;;;;-0.69;100.00;95716.56;4997922;28;20121;-85
2022/01/19 05:49:21;;;;;;;28.33;10.85;;;;;;;-0.82;100.00;95708.53;4996560;28;20034;-85
2022/01/19 05:51:47;;;;;;;28.90;10.55;;;;;;;-0.80;100.00;95707.41;4997934;28;20038;-85
2022/01/19 05:54:13;;;;;;;28.88;11.40;;;;;;;-1.02;100.00;95711.44;4996605;28;20030;-85
2022/01/19 05:56:39;;;;;;;28.42;10.85;;;;;;;-1.12;100.00;95714.19;4996347;28;20069;-85
2022/01/19 05:59:04;;;;;;;25.02;8.57;;;;;;;-1.18;100.00;95709.66;5012805;28;20038;-85
2022/01/19 06:01:32;;;;;;;21.65;7.53;;;;;;;-1.21;100.00;95708.22;5013024;28;20045;-85
2022/01/19 06:03:58;;;;;;;21.17;8.13;;;;;;;-1.31;100.00;95718.63;4996172;28;20037;-85
2022/01/19 06:06:23;;;;;;;22.80;7.93;;;;;;;-1.33;100.00;95707.72;4997841;28;20375;-85
2022/01/19 06:08:59;;;;;;;24.35;9.35;;;;;;;-1.25;100.00;95709.50;4996408;28;20032;-85
2022/01/19 06:11:25;;;;;;;30.35;10.38;;;;;;;-1.14;100.00;95711.75;5011685;28;20030;-84
2022/01/19 06:13:51;;;;;;;23.67;9.50;;;;;;;-1.21;100.00;95702.25;5012789;28;20080;-84
2022/01/19 06:16:17;;;;;;;29.33;10.45;;;;;;;-1.21;100.00;95707.41;5012634;28;20022;-84
2022/01/19 06:18:42;;;;;;;37.53;13.00;;;;;;;-1.16;100.00;95705.16;5012618;28;20365;-85
2022/01/19 06:21:09;;;;;;;40.00;13.50;;;;;;;-1.09;100.00;95703.56;5012831;28;20026;-85
2022/01/19 06:23:36;;;;;;;39.60;13.23;;;;;;;-1.23;100.00;95706.78;5012451;28;20090;-84
2022/01/19 06:26:05;;;;;;;37.72;13.70;;;;;;;-1.40;100.00;95711.91;5012506;28;20030;-85
2022/01/19 06:28:30;;;;;;;31.92;12.15;;;;;;;-1.44;100.00;95701.13;5012666;28;20344;-85
2022/01/19 06:30:56;;;;;;;34.60;11.82;;;;;;;-1.34;100.00;95705.31;4989972;28;20030;-85
2022/01/19 06:33:21;;;;;;;31.33;11.98;;;;;;;-1.21;100.00;95704.84;4982087;28;20050;-85
2022/01/19 06:35:47;;;;;;;32.28;12.05;;;;;;;-1.22;100.00;95703.22;4977824;28;20367;-84
2022/01/19 06:38:12;;;;;;;33.50;12.85;;;;;;;-1.25;100.00;95700.97;4976442;28;20074;-84
2022/01/19 06:40:38;;;;;;;39.47;14.77;;;;;;;-1.07;100.00;95699.06;4977060;28;20435;-84
2022/01/19 06:43:03;;;;;;;37.38;13.48;;;;;;;-1.02;100.00;95701.16;4985938;28;20050;-84
2022/01/19 06:45:29;;;;;;;34.20;13.57;;;;;;;-1.06;100.00;95700.66;4976353;28;20084;-85
2022/01/19 06:47:54;;;;;;;36.53;13.25;;;;;;;-1.12;100.00;95691.03;4960599;28;20037;-84
2022/01/19 06:50:20;;;;;;;38.40;14.23;;;;;;;-1.06;100.00;95687.78;4960518;28;20035;-85
2022/01/19 06:52:47;;;;;;;37.25;14.18;;;;;;;-1.08;100.00;95692.31;4976766;28;20038;-85
2022/01/19 06:55:14;;;;;;;35.03;13.32;;;;;;;-0.96;100.00;95694.56;4960572;28;20059;-84
2022/01/19 06:57:39;;;;;;;38.72;13.95;;;;;;;-0.95;100.00;95685.88;4976731;28;20097;-85
2022/01/19 07:00:05;;;;;;;35.47;13.68;;;;;;;-0.93;100.00;95684.75;4977565;28;20031;-85
2022/01/19 07:02:34;;;;;;;35.65;14.10;;;;;;;-1.01;100.00;95679.59;4960184;28;20464;-85
2022/01/19 07:05:00;;;;;;;34.33;12.68;;;;;;;-1.03;100.00;95681.53;4980681;28;20026;-85
2022/01/19 07:07:26;;;;;;;36.70;13.82;;;;;;;-0.90;100.00;95687.00;4996067;28;20030;-85
2022/01/19 07:09:51;;;;;;;33.85;12.65;;;;;;;-0.74;100.00;95685.38;5000611;28;20133;-85
2022/01/19 07:12:18;;;;;;;33.60;12.70;;;;;;;-0.66;100.00;95687.13;4989988;28;20038;-85
2022/01/19 07:14:43;;;;;;;32.28;11.93;;;;;;;-0.66;100.00;95689.69;4980154;28;20352;-85
2022/01/19 07:17:09;;;;;;;32.50;13.30;;;;;;;-0.57;100.00;95696.44;4980298;28;20046;-85
2022/01/19 07:19:35;;;;;;;33.55;13.55;;;;;;;-0.49;100.00;95688.69;4980278;28;20042;-85
2022/01/19 07:22:00;;;;;;;36.03;14.63;;;;;;;-0.27;100.00;95690.72;4981020;28;20454;-85
2022/01/19 07:24:26;;;;;;;44.53;17.15;;;;;;;-0.24;100.00;95680.09;4999058;28;20042;-85
2022/01/19 07:26:51;;;;;;;45.30;15.75;;;;;;;-0.30;100.00;95684.13;5000656;28;20038;-85
2022/01/19 07:29:17;;;;;;;37.67;14.98;;;;;;;-0.25;100.00;95683.63;5015753;28;20038;-85
2022/01/19 07:31:42;;;;;;;47.30;17.92;;;;;;;-0.16;100.00;95691.16;5000643;28;20038;-85
2022/01/19 07:34:08;;;;;;;53.08;19.05;;;;;;;-0.02;100.00;95691.44;5000235;28;20042;-85
2022/01/19 07:36:34;;;;;;;47.55;18.67;;;;;;;0.08;100.00;95693.81;5015741;28;20105;-85
2022/01/19 07:38:59;;;;;;;39.80;15.05;;;;;;;0.30;100.00;95691.44;4986170;28;20046;-85
2022/01/19 07:41:25;;;;;;;31.35;12.75;;;;;;;0.26;100.00;95693.56;4979549;28;20035;-85
2022/01/19 07:43:50;;;;;;;43.05;14.73;;;;;;;0.32;100.00;95694.66;4982111;28;20424;-85
2022/01/19 07:46:16;;;;;;;34.72;14.30;;;;;;;0.33;100.00;95693.69;4999534;28;20042;-85
2022/01/19 07:48:42;;;;;;;37.65;14.13;;;;;;;0.34;100.00;95690.13;4999969;28;20085;-84
2022/01/19 07:51:07;;;;;;;43.83;16.10;;;;;;;0.40;100.00;95692.81;4999062;28;20034;-84
2022/01/19 07:53:33;;;;;;;34.72;14.30;;;;;;;0.44;100.00;95698.47;4998659;28;20049;-84
2022/01/19 07:55:58;;;;;;;37.60;14.63;;;;;;;0.47;100.00;95692.16;4998679;28;20065;-84
2022/01/19 07:58:24;;;;;;;45.90;17.15;;;;;;;0.53;100.00;95688.88;4998652;28;20034;-85
2022/01/19 08:00:49;;;;;;;39.65;16.98;;;;;;;0.63;100.00;95702.38;5000095;28;20437;-84
2022/01/19 08:03:15;;;;;;;40.00;16.38;;;;;;;0.67;100.00;95695.88;4998858;28;20042;-84
2022/01/19 08:05:41;;;;;;;41.67;15.57;;;;;;;0.81;100.00;95696.94;4999571;28;20039;-84
2022/01/19 08:08:07;;;;;;;40.78;15.23;;;;;;;0.82;100.00;95701.13;4999703;28;20125;-85
2022/01/19 08:10:33;;;;;;;38.97;15.52;;;;;;;0.89;100.00;95690.09;4995265;28;20462;-84
2022/01/19 08:13:02;;;;;;;44.30;15.90;;;;;;;0.93;100.00;95692.16;4979476;28;20069;-84
2022/01/19 08:15:28;;;;;;;37.60;14.73;;;;;;;0.98;100.00;95695.00;4979941;28;20437;-84
2022/01/19 08:17:54;;;;;;;39.30;15.07;;;;;;;1.07;100.00;95693.16;4978905;28;20035;-84
2022/01/19 08:20:19;;;;;;;40.60;16.27;;;;;;;1.06;100.00;95686.41;4977745;28;20030;-84
2022/01/19 08:22:46;;;;;;;38.88;15.90;;;;;;;1.17;100.00;95692.94;4978864;28;20042;-84
2022/01/19 08:25:12;;;;;;;34.95;14.80;;;;;;;1.24;100.00;95690.47;4979719;28;20027;-84
2022/01/19 08:27:37;;;;;;;38.13;15.90;;;;;;;1.23;100.00;95684.47;4981536;28;20026;-84
2022/01/19 08:30:05;;;;;;;39.10;14.75;;;;;;;1.45;100.00;95678.63;4998319;28;20042;-84
2022/01/19 08:32:31;;;;;;;39.78;14.55;;;;;;;1.48;100.00;95670.53;4998199;28;20037;-84
2022/01/19 08:34:56;;;;;;;37.45;14.95;;;;;;;1.49;100.00;95670.34;5014278;28;20375;-84
2022/01/19 08:37:22;;;;;;;34.47;13.57;;;;;;;1.59;100.00;95674.47;4997869;28;20030;-84
2022/01/19 08:39:47;;;;;;;38.60;14.95;;;;;;;1.64;100.00;95678.09;4999143;28;20033;-84
2022/01/19 08:42:13;;;;;;;34.47;13.25;;;;;;;1.72;100.00;95671.25;5014209;28;20038;-84
2022/01/19 08:44:39;;;;;;;34.88;13.15;;;;;;;1.80;100.00;95678.91;4998058;28;20073;-84
2022/01/19 08:47:06;;;;;;;29.00;12.10;;;;;;;1.84;100.00;95677.56;5014473;28;20070;-84
2022/01/19 08:49:32;;;;;;;30.20;12.32;;;;;;;1.87;100.00;95674.63;4997618;28;20036;-84
2022/01/19 08:51:57;;;;;;;33.60;13.65;;;;;;;1.96;100.00;95672.75;4997758;28;20428;-85
2022/01/19 08:54:24;;;;;;;30.48;10.60;;;;;;;2.05;100.00;95676.84;4997672;28;20076;-84
2022/01/19 08:56:49;;;;;;;30.83;11.90;;;;;;;2.14;100.00;95676.72;4998979;28;20038;-84
2022/01/19 08:59:15;;;;;;;29.08;12.45;;;;;;;2.14;100.00;95674.94;5013939;28;20455;-84
2022/01/19 09:01:40;;;;;;;30.30;13.00;;;;;;;2.23;100.00;95675.63;4997677;28;20035;-84
2022/01/19 09:04:05;;;;;;;31.90;13.43;;;;;;;2.31;100.00;95672.13;4997237;28;20026;-84
2022/01/19 09:06:31;;;;;;;39.90;13.60;;;;;;;2.32;100.00;95678.91;4997530;28;20036;-84
2022/01/19 09:08:56;;;;;;;29.40;13.05;;;;;;;2.49;100.00;95669.16;5011034;28;20034;-84
2022/01/19 09:11:22;;;;;;;31.10;12.95;;;;;;;2.53;100.00;95672.97;4979020;28;20321;-84
2022/01/19 09:13:49;;;;;;;31.98;13.07;;;;;;;2.53;100.00;95681.53;4961728;28;20030;-84
2022/01/19 09:16:16;;;;;;;32.00;12.50;;;;;;;2.53;100.00;95675.56;4978579;28;20034;-85
2022/01/19 09:18:42;;;;;;;23.73;10.27;;;;;;;2.62;100.00;95677.03;4994207;28;20041;-84
2022/01/19 09:21:07;;;;;;;26.92;11.20;;;;;;;2.68;100.00;95676.28;4977856;28;20035;-84
2022/01/19 09:23:35;;;;;;;34.25;13.45;;;;;;;2.71;100.00;95672.56;4979726;28;20038;-84
2022/01/19 09:26:01;;;;;;;32.28;12.65;;;;;;;2.69;100.00;95670.13;4998384;28;20093;-84
2022/01/19 09:28:27;;;;;;;28.30;10.27;;;;;;;2.68;100.00;95672.94;4997248;28;20030;-84
2022/01/19 09:30:53;;;;;;;27.30;11.88;;;;;;;2.66;100.00;95670.50;4997878;28;20037;-85
2022/01/19 09:33:23;;;;;;;25.55;11.30;;;;;;;2.78;100.00;95668.22;4997500;28;20048;-84
2022/01/19 09:38:20;;;;;;;29.42;12.18;;;;;;;2.87;100.00;95675.88;4997190;28;20113;-84
2022/01/19 09:40:46;;;;;;;25.67;10.65;;;;;;;2.95;100.00;95679.13;4996982;28;20452;-84
2022/01/19 09:43:11;;;;;;;23.77;10.20;;;;;;;2.87;100.00;95676.69;4996948;28;20072;-84
2022/01/19 09:45:37;;;;;;;26.45;10.95;;;;;;;3.11;100.00;95666.91;4996552;28;20076;-84
2022/01/19 09:48:04;;;;;;;22.25;10.02;;;;;;;3.18;100.00;95666.94;4996814;28;20042;-84
2022/01/19 09:50:29;;;;;;;24.35;10.00;;;;;;;3.18;100.00;95661.78;4996541;28;20038;-84
2022/01/19 09:52:55;;;;;;;21.70;9.52;;;;;;;3.20;100.00;95650.25;4997996;28;20042;-85
2022/01/19 09:55:20;;;;;;;22.92;10.32;;;;;;;3.10;100.00;95654.94;4996147;28;20177;-84
2022/01/19 09:57:46;;;;;;;25.08;10.60;;;;;;;3.07;100.00;95656.09;4997987;28;20042;-85
2022/01/19 10:00:13;;;;;;;26.33;11.32;;;;;;;3.09;100.00;95653.34;4996759;28;20041;-84
2022/01/19 10:02:39;;;;;;;20.17;9.90;;;;;;;3.06;100.00;95653.72;4998107;28;20057;-84
2022/01/19 10:05:07;;;;;;;23.00;9.57;;;;;;;3.21;100.00;95657.03;4996220;28;20042;-85
2022/01/19 10:07:33;;;;;;;21.48;9.70;;;;;;;3.20;100.00;95649.44;5012865;28;20034;-84
2022/01/19 10:10:02;;;;;;;22.23;9.85;;;;;;;3.26;100.00;95648.69;5012906;28;20444;-84
2022/01/19 10:18:14;;;;;;;23.25;10.30;;;;;;;3.21;100.00;95625.94;4996619;28;20114;-84
2022/01/19 10:20:40;;;;;;;24.60;9.90;;;;;;;3.16;100.00;95617.94;4996393;28;20026;-84
2022/01/19 10:23:06;;;;;;;21.65;9.32;;;;;;;3.35;100.00;95615.66;4980123;28;20026;-85
2022/01/19 10:25:51;;;;;;;21.92;9.48;;;;;;;3.49;100.00;95624.28;4995534;28;20121;-84
2022/01/19 10:28:17;;;;;;;19.00;9.20;;;;;;;3.46;100.00;95612.53;4995884;28;20044;-84
2022/01/19 10:30:42;;;;;;;20.33;9.35;;;;;;;3.52;100.00;95600.63;4996020;28;20045;-84
2022/01/19 10:33:08;;;;;;;24.20;9.93;;;;;;;3.54;100.00;95598.63;4996228;28;20034;-84
2022/01/19 10:35:37;;;;;;;21.73;10.07;;;;;;;3.57;100.00;95602.59;4982530;28;20121;-84
2022/01/19 10:38:17;;;;;;;25.15;10.27;;;;;;;3.72;100.00;95592.91;4978067;28;20437;-84
2022/01/19 10:41:07;;;;;;;21.08;10.27;;;;;;;3.85;100.00;95593.97;4976856;28;20113;-84
2022/01/19 10:43:48;;;;;;;23.40;10.05;;;;;;;3.96;100.00;95596.81;4988499;28;20055;-84
2022/01/19 10:46:31;;;;;;;26.30;10.43;;;;;;;3.89;100.00;95590.00;4980778;28;20121;-84
2022/01/19 10:49:00;;;;;;;;;;;;;;;3.98;100.00;95585.44;4980959;28;20042;-84
2022/01/19 10:51:33;;;;;;;24.38;10.82;;;;;;;4.14;100.00;95587.66;4981940;28;19920;-84
2022/01/19 10:54:16;;;;;;;24.30;11.80;;;;;;;4.18;100.00;95580.31;4985826;28;20030;-84
2022/01/19 10:56:43;;;;;;;;;;;;;;;4.23;100.00;95577.91;5016894;28;20351;-84
2022/01/19 10:59:13;;;;;;;30.20;11.38;;;;;;;4.36;100.00;95575.34;4999708;28;19914;-84
2022/01/19 11:01:45;;;;;;;30.60;14.07;;;;;;;4.40;100.00;95578.34;4999725;28;20044;-84
2022/01/19 11:04:30;;;;;;;31.95;13.90;;;;;;;4.50;100.00;95570.94;5000720;28;20034;-84
2022/01/19 11:07:17;;;;;;;35.95;15.63;;;;;;;4.54;100.00;95563.56;4980227;28;20042;-84
2022/01/19 11:09:57;;;;;;;33.75;14.13;;;;;;;4.62;100.00;95558.19;4980195;28;20125;-84
2022/01/19 11:12:26;;;;;;;34.75;15.50;;;;;;;4.69;100.00;95554.78;4994905;28;20349;-84
2022/01/19 11:14:52;;;;;;;39.00;16.52;;;;;;;4.86;100.00;95547.41;4983755;28;20034;-84
2022/01/19 11:17:17;;;;;;;34.45;16.05;;;;;;;4.87;100.00;95544.56;4964126;28;20037;-84
2022/01/19 11:19:46;;;;;;;40.45;17.77;;;;;;;4.97;100.00;95533.78;4979900;28;20121;-84
2022/01/19 11:22:36;;;;;;;39.88;17.40;;;;;;;5.09;100.00;95526.16;4979851;28;20061;-84
2022/01/19 11:25:12;;;;;;;43.97;19.38;;;;;;;5.13;100.00;95522.16;4980781;28;20352;-84
2022/01/19 11:27:39;;;;;;;43.10;19.00;;;;;;;5.25;100.00;95514.56;4980080;28;20436;-84
2022/01/19 11:30:20;;;;;;;41.00;18.98;;;;;;;5.32;100.00;95511.94;4963574;28;20441;-85
2022/01/19 11:33:25;;;;;;;43.58;17.77;;;;;;;5.45;100.00;95505.88;4981126;28;20033;-85
2022/01/19 11:36:01;;;;;;;43.67;18.08;;;;;;;5.46;100.00;95505.69;5007553;28;20053;-85
2022/01/19 11:38:26;;;;;;;46.55;19.20;;;;;;;5.40;100.00;95496.09;4990541;28;20038;-84
2022/01/19 11:40:52;;;;;;;43.33;18.85;;;;;;;5.48;100.00;95495.06;4996821;28;20110;-84
2022/01/19 11:43:20;;;;;;;45.60;20.05;;;;;;;5.46;100.00;95486.66;4974252;28;20030;-84
2022/01/19 11:45:46;;;;;;;46.83;20.52;;;;;;;5.56;100.00;95484.44;4992412;28;20085;-84
2022/01/19 11:48:35;;;;;;;46.00;19.83;;;;;;;5.60;100.00;95477.03;5006970;28;20383;-84
2022/01/19 11:51:24;;;;;;;43.50;20.05;;;;;;;5.68;100.00;95471.56;4992413;28;20053;-84
2022/01/19 11:54:01;;;;;;;48.05;19.95;;;;;;;5.73;100.00;95471.72;4990112;28;20034;-84
2022/01/19 11:56:28;;;;;;;47.13;20.27;;;;;;;5.73;100.00;95461.31;4991359;28;20424;-88
2022/01/19 11:59:08;;;;;;;50.55;20.50;;;;;;;5.75;100.00;95461.94;4980938;28;20322;-85
2022/01/19 12:01:35;;;;;;;48.10;20.48;;;;;;;5.75;100.00;95451.53;4963313;28;20428;-84
2022/01/19 12:04:18;;;;;;;51.22;20.52;;;;;;;5.86;100.00;95457.06;4963176;28;20333;-84
2022/01/19 12:06:44;;;;;;;48.63;21.63;;;;;;;5.97;100.00;95456.38;4979354;28;20455;-84
2022/01/19 12:09:12;;;;;;;47.47;22.25;;;;;;;5.96;100.00;95441.78;4980392;28;20034;-84
2022/01/19 12:11:43;;;;;;;50.20;21.60;;;;;;;6.01;100.00;95439.38;4998745;28;20038;-84
2022/01/19 12:19:10;;;;;;;53.30;24.15;;;;;;;6.14;100.00;95422.88;4999569;28;20100;-85
2022/01/19 12:21:41;;;;;;;57.67;24.58;;;;;;;6.16;100.00;95425.25;4999444;28;20034;-84
2022/01/19 12:24:26;;;;;;;53.67;24.48;;;;;;;6.17;100.00;95417.25;4999232;28;20038;-85
2022/01/19 12:27:05;;;;;;;58.40;24.52;;;;;;;6.24;100.00;95417.19;4980453;28;20066;-84
2022/01/19 12:29:34;;;;;;;60.60;26.90;;;;;;;6.26;100.00;95403.97;4980333;28;20035;-84
2022/01/19 12:32:01;;;;;;;62.45;27.60;;;;;;;6.42;100.00;95402.59;4999581;28;20034;-85
2022/01/19 12:34:40;;;;;;;58.40;26.85;;;;;;;6.46;100.00;95395.97;5014300;28;20061;-85
2022/01/19 12:37:06;;;;;;;61.60;27.48;;;;;;;6.70;100.00;95391.72;4998233;28;20057;-85
2022/01/19 12:39:37;;;;;;;61.40;27.30;;;;;;;6.67;100.00;95379.13;4997841;28;20160;-85
2022/01/19 12:42:19;;;;;;;67.40;28.90;;;;;;;6.76;100.00;95384.84;4997979;28;20058;-85
2022/01/19 12:44:53;;;;;;;61.60;28.00;;;;;;;6.97;100.00;95377.59;4997994;28;20180;-85
2022/01/19 12:47:24;;;;;;;80.35;30.85;;;;;;;6.78;100.00;95377.63;4999332;28;20038;-85
2022/01/19 12:49:51;;;;;;;68.60;30.83;;;;;;;6.98;100.00;95374.78;4999066;28;20104;-85
2022/01/19 12:52:18;;;;;;;69.30;29.88;;;;;;;7.03;100.00;95371.50;5014012;28;20038;-85
2022/01/19 12:54:43;;;;;;;70.18;29.40;;;;;;;6.98;100.00;95359.16;4997556;28;20031;-85
2022/01/19 12:57:15;;;;;;;72.80;29.85;;;;;;;7.13;100.00;95363.94;4997542;28;20046;-85
2022/01/19 12:59:42;;;;;;;68.50;29.20;;;;;;;6.98;100.00;95353.13;4997892;28;20030;-85